sensor_id;sensor_type;location;lat;lon;timestamp;P1;durP1;ratioP1;P2;durP2;ratioP2
36585;SDS011;22591;48.314;11.562;2024-03-23T00:55:27;3.77;;;3.47;;
36585;SDS011;22591;48.314;11.562;2024-03-23T00:57:56;3.40;;;3.10;;
36585;SDS011;22591;48.314;11.562;2024-03-23T01:00:26;3.25;;;3.05;;
36585;SDS011;22591;48.314;11.562;2024-03-23T01:02:54;3.53;;;3.33;;
36585;SDS011;22591;48.314;11.562;2024-03-23T01:05:23;7.97;;;3.45;;
36585;SDS011;22591;48.314;11.562;2024-03-23T01:07:52;3.33;;;2.88;;
36585;SDS011;22591;48.314;11.562;2024-03-23T01:10:24;5.70;;;3.00;;
36585;SDS011;22591;48.314;11.562;2024-03-23T01:12:58;4.43;;;3.72;;
36585;SDS011;22591;48.314;11.562;2024-03-23T01:15:27;3.30;;;3.10;;
36585;SDS011;22591;48.314;11.562;2024-03-23T01:17:56;7.60;;;3.17;;
36585;SDS011;22591;48.314;11.562;2024-03-23T01:20:33;2.75;;;2.65;;
36585;SDS011;22591;48.314;11.562;2024-03-23T01:23:02;4.35;;;2.88;;
36585;SDS011;22591;48.314;11.562;2024-03-23T01:25:31;4.43;;;3.42;;
36585;SDS011;22591;48.314;11.562;2024-03-23T01:28:01;2.88;;;2.70;;
36585;SDS011;22591;48.314;11.562;2024-03-23T01:30:32;3.20;;;3.00;;
36585;SDS011;22591;48.314;11.562;2024-03-23T01:33:02;3.05;;;2.95;;
36585;SDS011;22591;48.314;11.562;2024-03-23T01:35:39;3.78;;;3.13;;
36585;SDS011;22591;48.314;11.562;2024-03-23T01:38:15;3.78;;;3.40;;
36585;SDS011;22591;48.314;11.562;2024-03-23T01:40:44;3.65;;;3.35;;
36585;SDS011;22591;48.314;11.562;2024-03-23T01:43:14;4.10;;;3.17;;
36585;SDS011;22591;48.314;11.562;2024-03-23T01:45:42;3.85;;;3.55;;
36585;SDS011;22591;48.314;11.562;2024-03-23T01:48:11;4.38;;;3.47;;
36585;SDS011;22591;48.314;11.562;2024-03-23T01:50:40;3.50;;;3.10;;
36585;SDS011;22591;48.314;11.562;2024-03-23T01:53:10;4.82;;;3.30;;
36585;SDS011;22591;48.314;11.562;2024-03-23T01:55:52;3.63;;;3.35;;
36585;SDS011;22591;48.314;11.562;2024-03-23T01:58:42;3.70;;;3.40;;
36585;SDS011;22591;48.314;11.562;2024-03-23T02:01:10;3.58;;;3.38;;
36585;SDS011;22591;48.314;11.562;2024-03-23T02:03:35;3.40;;;3.10;;
36585;SDS011;22591;48.314;11.562;2024-03-23T02:06:01;3.50;;;3.20;;
36585;SDS011;22591;48.314;11.562;2024-03-23T02:08:27;3.30;;;3.10;;
36585;SDS011;22591;48.314;11.562;2024-03-23T02:10:55;3.40;;;3.20;;
36585;SDS011;22591;48.314;11.562;2024-03-23T02:13:20;3.28;;;2.90;;
36585;SDS011;22591;48.314;11.562;2024-03-23T02:15:46;3.80;;;3.50;;
36585;SDS011;22591;48.314;11.562;2024-03-23T02:18:12;3.03;;;2.83;;
36585;SDS011;22591;48.314;11.562;2024-03-23T02:20:38;3.97;;;3.03;;
36585;SDS011;22591;48.314;11.562;2024-03-23T02:23:04;4.22;;;3.80;;
36585;SDS011;22591;48.314;11.562;2024-03-23T02:25:33;4.80;;;2.75;;
36585;SDS011;22591;48.314;11.562;2024-03-23T02:27:59;6.95;;;3.33;;
36585;SDS011;22591;48.314;11.562;2024-03-23T02:30:25;4.10;;;3.47;;
36585;SDS011;22591;48.314;11.562;2024-03-23T02:32:51;3.88;;;3.58;;
36585;SDS011;22591;48.314;11.562;2024-03-23T02:35:17;4.13;;;3.72;;
36585;SDS011;22591;48.314;11.562;2024-03-23T02:37:43;4.40;;;3.42;;
36585;SDS011;22591;48.314;11.562;2024-03-23T02:40:09;5.85;;;3.67;;
36585;SDS011;22591;48.314;11.562;2024-03-23T02:42:34;5.65;;;3.40;;
36585;SDS011;22591;48.314;11.562;2024-03-23T02:45:00;4.95;;;3.20;;
36585;SDS011;22591;48.314;11.562;2024-03-23T02:47:25;3.38;;;3.10;;
36585;SDS011;22591;48.314;11.562;2024-03-23T02:49:51;4.18;;;2.80;;
36585;SDS011;22591;48.314;11.562;2024-03-23T02:52:16;4.75;;;2.60;;
36585;SDS011;22591;48.314;11.562;2024-03-23T02:54:42;2.83;;;2.63;;
36585;SDS011;22591;48.314;11.562;2024-03-23T02:57:10;4.35;;;2.78;;
36585;SDS011;22591;48.314;11.562;2024-03-23T02:59:35;2.78;;;2.60;;
36585;SDS011;22591;48.314;11.562;2024-03-23T03:02:01;5.28;;;3.00;;
36585;SDS011;22591;48.314;11.562;2024-03-23T03:04:29;2.67;;;2.47;;
36585;SDS011;22591;48.314;11.562;2024-03-23T03:06:55;4.85;;;2.33;;
36585;SDS011;22591;48.314;11.562;2024-03-23T03:09:20;3.42;;;2.55;;
36585;SDS011;22591;48.314;11.562;2024-03-23T03:11:46;2.92;;;2.65;;
36585;SDS011;22591;48.314;11.562;2024-03-23T03:14:12;2.80;;;2.38;;
36585;SDS011;22591;48.314;11.562;2024-03-23T03:16:37;5.00;;;2.47;;
36585;SDS011;22591;48.314;11.562;2024-03-23T03:19:03;2.85;;;2.65;;
36585;SDS011;22591;48.314;11.562;2024-03-23T03:21:29;2.97;;;2.78;;
36585;SDS011;22591;48.314;11.562;2024-03-23T03:23:54;4.88;;;3.00;;
36585;SDS011;22591;48.314;11.562;2024-03-23T03:26:21;2.90;;;2.70;;
36585;SDS011;22591;48.314;11.562;2024-03-23T03:28:47;2.72;;;2.47;;
36585;SDS011;22591;48.314;11.562;2024-03-23T03:31:17;2.50;;;2.30;;
36585;SDS011;22591;48.314;11.562;2024-03-23T03:33:44;2.65;;;2.50;;
36585;SDS011;22591;48.314;11.562;2024-03-23T03:36:10;3.13;;;2.90;;
36585;SDS011;22591;48.314;11.562;2024-03-23T03:38:35;2.95;;;2.63;;
36585;SDS011;22591;48.314;11.562;2024-03-23T03:41:01;2.65;;;2.45;;
36585;SDS011;22591;48.314;11.562;2024-03-23T03:43:27;3.05;;;2.35;;
36585;SDS011;22591;48.314;11.562;2024-03-23T03:45:53;2.53;;;2.33;;
36585;SDS011;22591;48.314;11.562;2024-03-23T03:48:20;2.60;;;2.38;;
36585;SDS011;22591;48.314;11.562;2024-03-23T03:50:45;3.42;;;3.10;;
36585;SDS011;22591;48.314;11.562;2024-03-23T03:53:11;2.42;;;2.22;;
36585;SDS011;22591;48.314;11.562;2024-03-23T03:55:37;2.15;;;2.05;;
36585;SDS011;22591;48.314;11.562;2024-03-23T03:58:02;2.83;;;2.63;;
36585;SDS011;22591;48.314;11.562;2024-03-23T04:00:29;3.08;;;2.80;;
36585;SDS011;22591;48.314;11.562;2024-03-23T04:02:55;3.85;;;2.55;;
36585;SDS011;22591;48.314;11.562;2024-03-23T04:05:21;2.70;;;2.50;;
36585;SDS011;22591;48.314;11.562;2024-03-23T04:07:47;3.80;;;2.70;;
36585;SDS011;22591;48.314;11.562;2024-03-23T04:10:13;4.47;;;2.92;;
36585;SDS011;22591;48.314;11.562;2024-03-23T04:12:39;3.05;;;2.70;;
36585;SDS011;22591;48.314;11.562;2024-03-23T04:15:05;4.78;;;2.60;;
36585;SDS011;22591;48.314;11.562;2024-03-23T04:17:31;3.35;;;2.67;;
36585;SDS011;22591;48.314;11.562;2024-03-23T04:19:58;5.07;;;2.60;;
36585;SDS011;22591;48.314;11.562;2024-03-23T04:22:24;3.22;;;2.58;;
36585;SDS011;22591;48.314;11.562;2024-03-23T04:24:52;2.80;;;2.67;;
36585;SDS011;22591;48.314;11.562;2024-03-23T04:27:19;3.05;;;2.75;;
36585;SDS011;22591;48.314;11.562;2024-03-23T04:29:47;2.63;;;2.33;;
36585;SDS011;22591;48.314;11.562;2024-03-23T04:32:16;2.60;;;2.50;;
36585;SDS011;22591;48.314;11.562;2024-03-23T04:34:42;2.65;;;2.45;;
36585;SDS011;22591;48.314;11.562;2024-03-23T04:37:11;2.55;;;2.20;;
36585;SDS011;22591;48.314;11.562;2024-03-23T04:39:37;2.45;;;2.25;;
36585;SDS011;22591;48.314;11.562;2024-03-23T04:42:04;2.72;;;2.55;;
36585;SDS011;22591;48.314;11.562;2024-03-23T04:44:30;2.90;;;2.35;;
36585;SDS011;22591;48.314;11.562;2024-03-23T04:46:56;2.88;;;2.20;;
36585;SDS011;22591;48.314;11.562;2024-03-23T04:49:22;6.25;;;1.92;;
36585;SDS011;22591;48.314;11.562;2024-03-23T04:51:48;2.50;;;2.38;;
36585;SDS011;22591;48.314;11.562;2024-03-23T04:54:13;2.53;;;2.33;;
36585;SDS011;22591;48.314;11.562;2024-03-23T04:56:39;2.20;;;2.10;;
36585;SDS011;22591;48.314;11.562;2024-03-23T04:59:05;3.92;;;2.10;;
36585;SDS011;22591;48.314;11.562;2024-03-23T05:01:31;2.50;;;2.30;;
36585;SDS011;22591;48.314;11.562;2024-03-23T05:03:57;4.50;;;2.40;;
36585;SDS011;22591;48.314;11.562;2024-03-23T05:06:23;2.28;;;2.17;;
36585;SDS011;22591;48.314;11.562;2024-03-23T05:08:49;5.50;;;1.95;;
36585;SDS011;22591;48.314;11.562;2024-03-23T05:11:15;2.15;;;2.03;;
36585;SDS011;22591;48.314;11.562;2024-03-23T05:13:41;4.45;;;2.50;;
36585;SDS011;22591;48.314;11.562;2024-03-23T05:16:07;4.07;;;2.20;;
36585;SDS011;22591;48.314;11.562;2024-03-23T05:18:33;2.38;;;2.28;;
36585;SDS011;22591;48.314;11.562;2024-03-23T05:20:59;3.20;;;1.73;;
36585;SDS011;22591;48.314;11.562;2024-03-23T05:23:25;2.10;;;2.00;;
36585;SDS011;22591;48.314;11.562;2024-03-23T05:25:51;2.35;;;2.03;;
36585;SDS011;22591;48.314;11.562;2024-03-23T05:28:17;1.92;;;1.83;;
36585;SDS011;22591;48.314;11.562;2024-03-23T05:30:43;2.67;;;1.75;;
36585;SDS011;22591;48.314;11.562;2024-03-23T05:33:09;2.30;;;2.20;;
36585;SDS011;22591;48.314;11.562;2024-03-23T05:35:35;3.25;;;2.25;;
36585;SDS011;22591;48.314;11.562;2024-03-23T05:38:00;6.35;;;2.20;;
36585;SDS011;22591;48.314;11.562;2024-03-23T05:40:26;3.13;;;2.10;;
36585;SDS011;22591;48.314;11.562;2024-03-23T05:42:52;3.05;;;1.95;;
36585;SDS011;22591;48.314;11.562;2024-03-23T05:45:18;2.72;;;2.30;;
36585;SDS011;22591;48.314;11.562;2024-03-23T05:47:45;2.58;;;2.08;;
36585;SDS011;22591;48.314;11.562;2024-03-23T05:50:11;2.45;;;2.25;;
36585;SDS011;22591;48.314;11.562;2024-03-23T05:52:38;3.40;;;2.22;;
36585;SDS011;22591;48.314;11.562;2024-03-23T05:55:04;3.03;;;2.00;;
36585;SDS011;22591;48.314;11.562;2024-03-23T05:57:32;6.43;;;2.30;;
36585;SDS011;22591;48.314;11.562;2024-03-23T05:59:57;2.55;;;2.10;;
36585;SDS011;22591;48.314;11.562;2024-03-23T06:02:23;3.22;;;2.30;;
36585;SDS011;22591;48.314;11.562;2024-03-23T06:04:49;4.95;;;2.05;;
36585;SDS011;22591;48.314;11.562;2024-03-23T06:07:15;5.63;;;2.55;;
36585;SDS011;22591;48.314;11.562;2024-03-23T06:09:41;2.60;;;2.40;;
36585;SDS011;22591;48.314;11.562;2024-03-23T06:12:07;2.17;;;2.00;;
36585;SDS011;22591;48.314;11.562;2024-03-23T06:14:34;2.03;;;1.92;;
36585;SDS011;22591;48.314;11.562;2024-03-23T06:16:59;1.80;;;1.70;;
36585;SDS011;22591;48.314;11.562;2024-03-23T06:19:26;2.38;;;2.17;;
36585;SDS011;22591;48.314;11.562;2024-03-23T06:21:53;2.60;;;2.10;;
36585;SDS011;22591;48.314;11.562;2024-03-23T06:24:20;2.17;;;2.03;;
36585;SDS011;22591;48.314;11.562;2024-03-23T06:26:46;2.20;;;1.83;;
36585;SDS011;22591;48.314;11.562;2024-03-23T06:29:12;1.70;;;1.55;;
36585;SDS011;22591;48.314;11.562;2024-03-23T06:31:37;4.07;;;2.03;;
36585;SDS011;22591;48.314;11.562;2024-03-23T06:34:04;2.13;;;1.70;;
36585;SDS011;22591;48.314;11.562;2024-03-23T06:36:29;2.65;;;1.60;;
36585;SDS011;22591;48.314;11.562;2024-03-23T06:38:55;1.98;;;1.88;;
36585;SDS011;22591;48.314;11.562;2024-03-23T06:41:21;1.90;;;1.80;;
36585;SDS011;22591;48.314;11.562;2024-03-23T06:43:47;2.03;;;1.88;;
36585;SDS011;22591;48.314;11.562;2024-03-23T06:46:13;2.38;;;1.90;;
36585;SDS011;22591;48.314;11.562;2024-03-23T06:48:39;1.90;;;1.80;;
36585;SDS011;22591;48.314;11.562;2024-03-23T06:51:04;3.50;;;1.95;;
36585;SDS011;22591;48.314;11.562;2024-03-23T06:53:31;1.73;;;1.63;;
36585;SDS011;22591;48.314;11.562;2024-03-23T06:55:57;2.15;;;1.70;;
36585;SDS011;22591;48.314;11.562;2024-03-23T06:58:23;1.98;;;1.80;;
36585;SDS011;22591;48.314;11.562;2024-03-23T07:00:50;2.75;;;2.55;;
36585;SDS011;22591;48.314;11.562;2024-03-23T07:03:19;3.38;;;1.83;;
36585;SDS011;22591;48.314;11.562;2024-03-23T07:05:46;4.63;;;2.75;;
36585;SDS011;22591;48.314;11.562;2024-03-23T07:08:12;3.47;;;1.70;;
36585;SDS011;22591;48.314;11.562;2024-03-23T07:10:40;2.05;;;1.95;;
36585;SDS011;22591;48.314;11.562;2024-03-23T07:13:06;1.75;;;1.65;;
36585;SDS011;22591;48.314;11.562;2024-03-23T07:15:32;2.20;;;2.03;;
36585;SDS011;22591;48.314;11.562;2024-03-23T07:17:58;2.22;;;1.77;;
36585;SDS011;22591;48.314;11.562;2024-03-23T07:20:24;3.88;;;1.83;;
36585;SDS011;22591;48.314;11.562;2024-03-23T07:22:49;2.92;;;2.08;;
36585;SDS011;22591;48.314;11.562;2024-03-23T07:25:15;2.60;;;2.40;;
36585;SDS011;22591;48.314;11.562;2024-03-23T07:27:42;4.38;;;2.30;;
36585;SDS011;22591;48.314;11.562;2024-03-23T07:30:08;3.10;;;2.80;;
36585;SDS011;22591;48.314;11.562;2024-03-23T07:32:34;2.53;;;2.33;;
36585;SDS011;22591;48.314;11.562;2024-03-23T07:35:00;2.67;;;2.45;;
36585;SDS011;22591;48.314;11.562;2024-03-23T07:37:26;4.75;;;2.50;;
36585;SDS011;22591;48.314;11.562;2024-03-23T07:39:52;2.60;;;2.40;;
36585;SDS011;22591;48.314;11.562;2024-03-23T07:42:17;2.88;;;2.42;;
36585;SDS011;22591;48.314;11.562;2024-03-23T07:44:43;3.95;;;2.53;;
36585;SDS011;22591;48.314;11.562;2024-03-23T07:47:11;3.53;;;2.90;;
36585;SDS011;22591;48.314;11.562;2024-03-23T07:49:37;3.20;;;2.38;;
36585;SDS011;22591;48.314;11.562;2024-03-23T07:52:03;2.60;;;2.40;;
36585;SDS011;22591;48.314;11.562;2024-03-23T07:54:29;4.25;;;2.92;;
36585;SDS011;22591;48.314;11.562;2024-03-23T07:56:54;3.35;;;3.05;;
36585;SDS011;22591;48.314;11.562;2024-03-23T07:59:20;4.32;;;3.17;;
36585;SDS011;22591;48.314;11.562;2024-03-23T08:01:46;3.67;;;3.13;;
36585;SDS011;22591;48.314;11.562;2024-03-23T08:04:11;3.05;;;2.78;;
36585;SDS011;22591;48.314;11.562;2024-03-23T08:06:38;5.50;;;2.75;;
36585;SDS011;22591;48.314;11.562;2024-03-23T08:09:03;2.75;;;2.42;;
36585;SDS011;22591;48.314;11.562;2024-03-23T08:11:29;6.65;;;4.47;;
36585;SDS011;22591;48.314;11.562;2024-03-23T08:13:57;8.30;;;6.85;;
36585;SDS011;22591;48.314;11.562;2024-03-23T08:16:23;5.63;;;5.15;;
36585;SDS011;22591;48.314;11.562;2024-03-23T08:18:52;6.30;;;5.80;;
36585;SDS011;22591;48.314;11.562;2024-03-23T08:21:18;6.45;;;5.95;;
36585;SDS011;22591;48.314;11.562;2024-03-23T08:23:43;6.28;;;5.50;;
36585;SDS011;22591;48.314;11.562;2024-03-23T08:26:11;6.57;;;5.95;;
36585;SDS011;22591;48.314;11.562;2024-03-23T08:28:38;7.43;;;6.72;;
36585;SDS011;22591;48.314;11.562;2024-03-23T08:31:05;4.85;;;4.53;;
36585;SDS011;22591;48.314;11.562;2024-03-23T08:33:36;4.95;;;3.90;;
36585;SDS011;22591;48.314;11.562;2024-03-23T08:36:03;4.78;;;4.38;;
36585;SDS011;22591;48.314;11.562;2024-03-23T08:38:31;5.82;;;5.18;;
36585;SDS011;22591;48.314;11.562;2024-03-23T08:40:57;5.28;;;4.75;;
36585;SDS011;22591;48.314;11.562;2024-03-23T08:43:25;7.63;;;6.10;;
36585;SDS011;22591;48.314;11.562;2024-03-23T08:45:52;4.13;;;3.83;;
36585;SDS011;22591;48.314;11.562;2024-03-23T08:48:20;4.88;;;4.47;;
36585;SDS011;22591;48.314;11.562;2024-03-23T08:50:46;4.57;;;4.18;;
36585;SDS011;22591;48.314;11.562;2024-03-23T08:53:14;5.35;;;4.90;;
36585;SDS011;22591;48.314;11.562;2024-03-23T08:55:39;5.82;;;5.32;;
36585;SDS011;22591;48.314;11.562;2024-03-23T08:58:05;6.20;;;5.70;;
36585;SDS011;22591;48.314;11.562;2024-03-23T09:00:33;5.43;;;5.03;;
36585;SDS011;22591;48.314;11.562;2024-03-23T09:02:59;6.30;;;5.78;;
36585;SDS011;22591;48.314;11.562;2024-03-23T09:05:26;5.78;;;5.28;;
36585;SDS011;22591;48.314;11.562;2024-03-23T09:07:53;6.03;;;5.50;;
36585;SDS011;22591;48.314;11.562;2024-03-23T09:10:19;7.90;;;6.78;;
36585;SDS011;22591;48.314;11.562;2024-03-23T09:12:44;7.40;;;6.75;;
36585;SDS011;22591;48.314;11.562;2024-03-23T09:15:10;9.25;;;8.30;;
36585;SDS011;22591;48.314;11.562;2024-03-23T09:17:36;9.52;;;8.63;;
36585;SDS011;22591;48.314;11.562;2024-03-23T09:20:03;9.32;;;8.50;;
36585;SDS011;22591;48.314;11.562;2024-03-23T09:22:29;8.48;;;7.78;;
36585;SDS011;22591;48.314;11.562;2024-03-23T09:24:55;7.32;;;6.43;;
36585;SDS011;22591;48.314;11.562;2024-03-23T09:27:21;8.40;;;7.60;;
36585;SDS011;22591;48.314;11.562;2024-03-23T09:29:47;7.78;;;7.18;;
36585;SDS011;22591;48.314;11.562;2024-03-23T09:32:12;6.20;;;5.50;;
36585;SDS011;22591;48.314;11.562;2024-03-23T09:34:38;6.13;;;5.70;;
36585;SDS011;22591;48.314;11.562;2024-03-23T09:37:04;5.10;;;4.70;;
36585;SDS011;22591;48.314;11.562;2024-03-23T09:39:29;2.83;;;2.67;;
36585;SDS011;22591;48.314;11.562;2024-03-23T09:41:57;3.22;;;2.60;;
36585;SDS011;22591;48.314;11.562;2024-03-23T09:44:24;2.90;;;2.70;;
36585;SDS011;22591;48.314;11.562;2024-03-23T09:46:52;2.40;;;2.30;;
36585;SDS011;22591;48.314;11.562;2024-03-23T09:49:18;2.75;;;1.67;;
36585;SDS011;22591;48.314;11.562;2024-03-23T09:51:43;0.98;;;0.98;;
36585;SDS011;22591;48.314;11.562;2024-03-23T09:54:09;1.52;;;1.42;;
36585;SDS011;22591;48.314;11.562;2024-03-23T09:56:35;0.95;;;0.95;;
36585;SDS011;22591;48.314;11.562;2024-03-23T09:59:02;1.02;;;1.02;;
36585;SDS011;22591;48.314;11.562;2024-03-23T10:01:30;0.88;;;0.88;;
36585;SDS011;22591;48.314;11.562;2024-03-23T10:03:56;1.08;;;1.08;;
36585;SDS011;22591;48.314;11.562;2024-03-23T10:06:22;1.23;;;1.23;;
36585;SDS011;22591;48.314;11.562;2024-03-23T10:08:51;1.08;;;1.08;;
36585;SDS011;22591;48.314;11.562;2024-03-23T10:11:18;1.02;;;1.02;;
36585;SDS011;22591;48.314;11.562;2024-03-23T10:13:44;0.85;;;0.85;;
36585;SDS011;22591;48.314;11.562;2024-03-23T10:16:20;0.98;;;0.98;;
36585;SDS011;22591;48.314;11.562;2024-03-23T10:18:47;1.23;;;1.23;;
36585;SDS011;22591;48.314;11.562;2024-03-23T10:21:14;1.20;;;1.20;;
36585;SDS011;22591;48.314;11.562;2024-03-23T10:23:44;1.40;;;1.00;;
36585;SDS011;22591;48.314;11.562;2024-03-23T10:26:14;0.98;;;0.98;;
36585;SDS011;22591;48.314;11.562;2024-03-23T10:28:53;0.90;;;0.90;;
36585;SDS011;22591;48.314;11.562;2024-03-23T10:31:19;1.02;;;1.02;;
36585;SDS011;22591;48.314;11.562;2024-03-23T10:33:46;0.50;;;0.50;;
36585;SDS011;22591;48.314;11.562;2024-03-23T10:36:13;0.80;;;0.80;;
36585;SDS011;22591;48.314;11.562;2024-03-23T10:38:42;0.70;;;0.70;;
36585;SDS011;22591;48.314;11.562;2024-03-23T10:41:09;0.50;;;0.50;;
36585;SDS011;22591;48.314;11.562;2024-03-23T10:43:36;1.02;;;1.02;;
36585;SDS011;22591;48.314;11.562;2024-03-23T10:46:02;0.93;;;0.93;;
36585;SDS011;22591;48.314;11.562;2024-03-23T10:48:29;0.60;;;0.60;;
36585;SDS011;22591;48.314;11.562;2024-03-23T10:50:54;0.75;;;0.75;;
36585;SDS011;22591;48.314;11.562;2024-03-23T10:53:21;0.70;;;0.70;;
36585;SDS011;22591;48.314;11.562;2024-03-23T10:55:51;0.77;;;0.77;;
36585;SDS011;22591;48.314;11.562;2024-03-23T10:58:17;0.70;;;0.70;;
36585;SDS011;22591;48.314;11.562;2024-03-23T11:00:46;1.02;;;1.02;;
36585;SDS011;22591;48.314;11.562;2024-03-23T11:06:06;0.80;;;0.80;;
36585;SDS011;22591;48.314;11.562;2024-03-23T11:08:40;0.88;;;0.88;;
36585;SDS011;22591;48.314;11.562;2024-03-23T11:13:49;1.00;;;0.88;;
36585;SDS011;22591;48.314;11.562;2024-03-23T11:16:21;1.08;;;1.08;;
36585;SDS011;22591;48.314;11.562;2024-03-23T11:18:55;1.60;;;1.50;;
36585;SDS011;22591;48.314;11.562;2024-03-23T11:22:01;0.80;;;0.80;;
36585;SDS011;22591;48.314;11.562;2024-03-23T11:24:27;0.88;;;0.88;;
36585;SDS011;22591;48.314;11.562;2024-03-23T11:26:54;1.15;;;1.15;;
36585;SDS011;22591;48.314;11.562;2024-03-23T11:29:19;1.20;;;1.20;;
36585;SDS011;22591;48.314;11.562;2024-03-23T11:31:49;1.33;;;1.23;;
36585;SDS011;22591;48.314;11.562;2024-03-23T11:34:16;1.80;;;1.70;;
36585;SDS011;22591;48.314;11.562;2024-03-23T11:36:43;1.30;;;1.20;;
36585;SDS011;22591;48.314;11.562;2024-03-23T11:39:13;1.52;;;1.42;;
36585;SDS011;22591;48.314;11.562;2024-03-23T11:44:20;1.15;;;1.05;;
36585;SDS011;22591;48.314;11.562;2024-03-23T11:46:50;1.88;;;1.75;;
36585;SDS011;22591;48.314;11.562;2024-03-23T11:49:20;1.42;;;1.33;;
36585;SDS011;22591;48.314;11.562;2024-03-23T11:51:49;1.98;;;1.48;;
36585;SDS011;22591;48.314;11.562;2024-03-23T11:54:16;2.30;;;1.58;;
36585;SDS011;22591;48.314;11.562;2024-03-23T11:56:53;1.83;;;1.73;;
36585;SDS011;22591;48.314;11.562;2024-03-23T11:59:31;1.60;;;1.50;;
36585;SDS011;22591;48.314;11.562;2024-03-23T12:01:59;4.03;;;2.28;;
36585;SDS011;22591;48.314;11.562;2024-03-23T12:04:28;1.60;;;1.50;;
36585;SDS011;22591;48.314;11.562;2024-03-23T12:09:39;1.55;;;1.42;;
36585;SDS011;22591;48.314;11.562;2024-03-23T12:12:10;2.40;;;1.50;;
36585;SDS011;22591;48.314;11.562;2024-03-23T12:14:42;1.67;;;1.58;;
36585;SDS011;22591;48.314;11.562;2024-03-23T12:17:14;2.83;;;1.67;;
36585;SDS011;22591;48.314;11.562;2024-03-23T12:22:06;2.40;;;2.10;;
36585;SDS011;22591;48.314;11.562;2024-03-23T12:24:33;2.65;;;1.83;;
36585;SDS011;22591;48.314;11.562;2024-03-23T12:27:00;2.03;;;1.80;;
36585;SDS011;22591;48.314;11.562;2024-03-23T12:29:29;2.58;;;1.85;;
36585;SDS011;22591;48.314;11.562;2024-03-23T12:31:58;8.15;;;1.63;;
36585;SDS011;22591;48.314;11.562;2024-03-23T12:34:25;1.73;;;1.30;;
36585;SDS011;22591;48.314;11.562;2024-03-23T12:36:52;3.50;;;2.47;;
36585;SDS011;22591;48.314;11.562;2024-03-23T12:39:19;2.15;;;1.55;;
36585;SDS011;22591;48.314;11.562;2024-03-23T12:41:48;3.50;;;2.10;;
36585;SDS011;22591;48.314;11.562;2024-03-23T12:44:14;5.28;;;1.85;;
36585;SDS011;22591;48.314;11.562;2024-03-23T12:46:41;2.63;;;1.60;;
36585;SDS011;22591;48.314;11.562;2024-03-23T12:49:09;4.50;;;2.15;;
36585;SDS011;22591;48.314;11.562;2024-03-23T12:51:35;2.45;;;2.25;;
36585;SDS011;22591;48.314;11.562;2024-03-23T12:54:01;3.08;;;2.15;;
36585;SDS011;22591;48.314;11.562;2024-03-23T12:56:27;3.33;;;2.70;;
36585;SDS011;22591;48.314;11.562;2024-03-23T12:58:56;3.80;;;2.50;;
36585;SDS011;22591;48.314;11.562;2024-03-23T13:01:25;4.78;;;2.40;;
36585;SDS011;22591;48.314;11.562;2024-03-23T13:03:51;6.05;;;2.50;;
36585;SDS011;22591;48.314;11.562;2024-03-23T13:06:17;4.25;;;2.17;;
36585;SDS011;22591;48.314;11.562;2024-03-23T13:08:44;3.35;;;2.88;;
36585;SDS011;22591;48.314;11.562;2024-03-23T13:11:10;3.63;;;2.58;;
36585;SDS011;22591;48.314;11.562;2024-03-23T13:13:36;7.00;;;3.17;;
36585;SDS011;22591;48.314;11.562;2024-03-23T13:16:02;8.57;;;2.67;;
36585;SDS011;22591;48.314;11.562;2024-03-23T13:18:29;4.65;;;2.70;;
36585;SDS011;22591;48.314;11.562;2024-03-23T13:20:57;3.67;;;3.20;;
36585;SDS011;22591;48.314;11.562;2024-03-23T13:23:23;3.60;;;2.22;;
36585;SDS011;22591;48.314;11.562;2024-03-23T13:25:52;4.95;;;2.42;;
36585;SDS011;22591;48.314;11.562;2024-03-23T13:28:21;2.28;;;2.17;;
36585;SDS011;22591;48.314;11.562;2024-03-23T13:30:49;4.22;;;2.47;;
36585;SDS011;22591;48.314;11.562;2024-03-23T13:33:18;2.83;;;2.20;;
36585;SDS011;22591;48.314;11.562;2024-03-23T13:35:56;4.05;;;2.63;;
36585;SDS011;22591;48.314;11.562;2024-03-23T13:38:22;5.15;;;3.00;;
36585;SDS011;22591;48.314;11.562;2024-03-23T13:41:00;3.35;;;3.05;;
36585;SDS011;22591;48.314;11.562;2024-03-23T13:43:27;3.10;;;2.75;;
36585;SDS011;22591;48.314;11.562;2024-03-23T13:45:54;7.63;;;3.63;;
36585;SDS011;22591;48.314;11.562;2024-03-23T13:48:23;8.35;;;3.83;;
36585;SDS011;22591;48.314;11.562;2024-03-23T13:50:59;4.15;;;3.55;;
36585;SDS011;22591;48.314;11.562;2024-03-23T13:53:25;6.85;;;4.15;;
36585;SDS011;22591;48.314;11.562;2024-03-23T13:55:51;6.18;;;4.20;;
36585;SDS011;22591;48.314;11.562;2024-03-23T13:58:18;8.18;;;4.70;;
36585;SDS011;22591;48.314;11.562;2024-03-23T14:00:44;7.80;;;4.53;;
36585;SDS011;22591;48.314;11.562;2024-03-23T14:03:10;6.28;;;4.53;;
36585;SDS011;22591;48.314;11.562;2024-03-23T14:05:39;5.30;;;4.55;;
36585;SDS011;22591;48.314;11.562;2024-03-23T14:08:06;5.53;;;3.88;;
36585;SDS011;22591;48.314;11.562;2024-03-23T14:10:32;6.57;;;4.65;;
36585;SDS011;22591;48.314;11.562;2024-03-23T14:12:58;4.35;;;3.35;;
36585;SDS011;22591;48.314;11.562;2024-03-23T14:15:28;4.70;;;4.22;;
36585;SDS011;22591;48.314;11.562;2024-03-23T14:17:55;6.60;;;4.38;;
36585;SDS011;22591;48.314;11.562;2024-03-23T14:20:21;4.85;;;3.47;;
36585;SDS011;22591;48.314;11.562;2024-03-23T14:22:48;3.72;;;3.38;;
36585;SDS011;22591;48.314;11.562;2024-03-23T14:25:14;3.72;;;3.42;;
36585;SDS011;22591;48.314;11.562;2024-03-23T14:27:40;3.30;;;3.00;;
36585;SDS011;22591;48.314;11.562;2024-03-23T14:30:06;6.05;;;3.75;;
36585;SDS011;22591;48.314;11.562;2024-03-23T14:32:32;4.72;;;3.88;;
36585;SDS011;22591;48.314;11.562;2024-03-23T14:35:02;6.43;;;3.47;;
36585;SDS011;22591;48.314;11.562;2024-03-23T14:37:28;4.63;;;2.88;;
36585;SDS011;22591;48.314;11.562;2024-03-23T14:39:57;2.67;;;2.47;;
36585;SDS011;22591;48.314;11.562;2024-03-23T14:42:23;2.67;;;2.33;;
36585;SDS011;22591;48.314;11.562;2024-03-23T14:44:49;5.07;;;2.78;;
36585;SDS011;22591;48.314;11.562;2024-03-23T14:47:15;4.55;;;2.45;;
36585;SDS011;22591;48.314;11.562;2024-03-23T14:49:42;3.75;;;2.63;;
36585;SDS011;22591;48.314;11.562;2024-03-23T14:52:12;4.97;;;2.58;;
36585;SDS011;22591;48.314;11.562;2024-03-23T14:54:38;3.08;;;2.10;;
36585;SDS011;22591;48.314;11.562;2024-03-23T14:57:04;5.32;;;2.60;;
36585;SDS011;22591;48.314;11.562;2024-03-23T14:59:31;7.57;;;4.85;;
36585;SDS011;22591;48.314;11.562;2024-03-23T15:01:57;3.17;;;2.30;;
36585;SDS011;22591;48.314;11.562;2024-03-23T15:04:23;3.97;;;3.10;;
36585;SDS011;22591;48.314;11.562;2024-03-23T15:06:48;3.00;;;2.70;;
36585;SDS011;22591;48.314;11.562;2024-03-23T15:09:15;4.93;;;2.15;;
36585;SDS011;22591;48.314;11.562;2024-03-23T15:11:41;2.75;;;2.55;;
36585;SDS011;22591;48.314;11.562;2024-03-23T15:14:06;4.00;;;2.80;;
36585;SDS011;22591;48.314;11.562;2024-03-23T15:16:32;4.97;;;3.00;;
36585;SDS011;22591;48.314;11.562;2024-03-23T15:18:58;3.70;;;2.65;;
36585;SDS011;22591;48.314;11.562;2024-03-23T15:21:24;9.38;;;5.88;;
36585;SDS011;22591;48.314;11.562;2024-03-23T15:23:49;5.40;;;3.75;;
36585;SDS011;22591;48.314;11.562;2024-03-23T15:26:15;5.00;;;2.70;;
36585;SDS011;22591;48.314;11.562;2024-03-23T15:28:41;4.53;;;2.50;;
36585;SDS011;22591;48.314;11.562;2024-03-23T15:31:29;6.25;;;2.97;;
36585;SDS011;22591;48.314;11.562;2024-03-23T15:33:56;5.28;;;2.42;;
36585;SDS011;22591;48.314;11.562;2024-03-23T15:36:21;3.28;;;2.47;;
36585;SDS011;22591;48.314;11.562;2024-03-23T15:38:47;6.40;;;2.67;;
36585;SDS011;22591;48.314;11.562;2024-03-23T15:41:14;3.88;;;2.13;;